sensor_id;sensor_type;location;lat;lon;timestamp;pressure;altitude;pressure_sealevel;temperature
67829;BMP280;54626;45.436;10.942;2023-02-01T00:01:30;101137.44;;;0.20
67829;BMP280;54626;45.436;10.942;2023-02-01T00:03:56;101137.06;;;0.09
67829;BMP280;54626;45.436;10.942;2023-02-01T00:06:23;101134.69;;;-0.02
67829;BMP280;54626;45.436;10.942;2023-02-01T00:08:53;101131.47;;;-0.09
67829;BMP280;54626;45.436;10.942;2023-02-01T00:11:21;101123.19;;;-0.05
67829;BMP280;54626;45.436;10.942;2023-02-01T00:13:48;101124.03;;;0.04
67829;BMP280;54626;45.436;10.942;2023-02-01T00:16:20;101123.16;;;0.07
67829;BMP280;54626;45.436;10.942;2023-02-01T00:18:48;101130.09;;;0.08
67829;BMP280;54626;45.436;10.942;2023-02-01T00:21:17;101125.56;;;0.05
67829;BMP280;54626;45.436;10.942;2023-02-01T00:23:45;101125.41;;;0.08
67829;BMP280;54626;45.436;10.942;2023-02-01T00:26:17;101125.78;;;0.19
67829;BMP280;54626;45.436;10.942;2023-02-01T00:28:45;101129.47;;;0.34
67829;BMP280;54626;45.436;10.942;2023-02-01T00:31:11;101133.59;;;0.39
67829;BMP280;54626;45.436;10.942;2023-02-01T00:33:38;101137.66;;;0.43
67829;BMP280;54626;45.436;10.942;2023-02-01T00:36:07;101133.44;;;0.42
67829;BMP280;54626;45.436;10.942;2023-02-01T00:38:36;101124.34;;;0.36
67829;BMP280;54626;45.436;10.942;2023-02-01T00:41:09;101125.41;;;0.30
67829;BMP280;54626;45.436;10.942;2023-02-01T00:43:36;101131.41;;;0.25
67829;BMP280;54626;45.436;10.942;2023-02-01T00:46:03;101131.78;;;0.14
67829;BMP280;54626;45.436;10.942;2023-02-01T00:48:30;101125.09;;;0.06
67829;BMP280;54626;45.436;10.942;2023-02-01T00:51:10;101129.78;;;0.06
67829;BMP280;54626;45.436;10.942;2023-02-01T00:53:37;101126.94;;;0.09
67829;BMP280;54626;45.436;10.942;2023-02-01T00:56:04;101124.41;;;0.15
67829;BMP280;54626;45.436;10.942;2023-02-01T00:58:32;101121.88;;;0.20
67829;BMP280;54626;45.436;10.942;2023-02-01T01:01:17;101129.28;;;0.20
67829;BMP280;54626;45.436;10.942;2023-02-01T01:03:46;101125.56;;;0.05
67829;BMP280;54626;45.436;10.942;2023-02-01T01:06:19;101128.94;;;-0.03
67829;BMP280;54626;45.436;10.942;2023-02-01T01:08:47;101124.09;;;-0.08
67829;BMP280;54626;45.436;10.942;2023-02-01T01:11:18;101132.72;;;-0.01
67829;BMP280;54626;45.436;10.942;2023-02-01T01:13:47;101121.31;;;0.04
67829;BMP280;54626;45.436;10.942;2023-02-01T01:16:14;101124.41;;;0.15
67829;BMP280;54626;45.436;10.942;2023-02-01T01:18:41;101117.31;;;0.17
67829;BMP280;54626;45.436;10.942;2023-02-01T01:21:09;101120.03;;;0.17
67829;BMP280;54626;45.436;10.942;2023-02-01T01:23:36;101114.16;;;0.19
67829;BMP280;54626;45.436;10.942;2023-02-01T01:26:07;101117.94;;;0.21
67829;BMP280;54626;45.436;10.942;2023-02-01T01:28:34;101122.00;;;0.17
67829;BMP280;54626;45.436;10.942;2023-02-01T01:31:01;101118.72;;;0.22
67829;BMP280;54626;45.436;10.942;2023-02-01T01:33:27;101114.34;;;0.24
67829;BMP280;54626;45.436;10.942;2023-02-01T01:35:54;101112.97;;;0.20
67829;BMP280;54626;45.436;10.942;2023-02-01T01:38:20;101109.34;;;0.23
67829;BMP280;54626;45.436;10.942;2023-02-01T01:40:47;101112.56;;;0.30
67829;BMP280;54626;45.436;10.942;2023-02-01T01:43:17;101117.69;;;0.37
67829;BMP280;54626;45.436;10.942;2023-02-01T01:45:45;101105.84;;;0.53
67829;BMP280;54626;45.436;10.942;2023-02-01T01:51:02;101110.09;;;0.54
67829;BMP280;54626;45.436;10.942;2023-02-01T01:53:40;101109.00;;;0.51
67829;BMP280;54626;45.436;10.942;2023-02-01T01:56:07;101106.44;;;0.48
67829;BMP280;54626;45.436;10.942;2023-02-01T01:58:34;101096.13;;;0.43
67829;BMP280;54626;45.436;10.942;2023-02-01T02:01:00;101089.13;;;0.33
67829;BMP280;54626;45.436;10.942;2023-02-01T02:03:33;101090.34;;;0.32
67829;BMP280;54626;45.436;10.942;2023-02-01T02:06:02;101090.63;;;0.25
67829;BMP280;54626;45.436;10.942;2023-02-01T02:08:30;101082.75;;;0.18
67829;BMP280;54626;45.436;10.942;2023-02-01T02:10:56;101083.50;;;0.18
67829;BMP280;54626;45.436;10.942;2023-02-01T02:13:38;101085.47;;;0.18
67829;BMP280;54626;45.436;10.942;2023-02-01T02:27:59;101085.09;;;0.46
67829;BMP280;54626;45.436;10.942;2023-02-01T02:31:13;101075.66;;;0.60
67829;BMP280;54626;45.436;10.942;2023-02-01T02:33:52;101078.38;;;0.60
67829;BMP280;54626;45.436;10.942;2023-02-01T02:36:42;101081.81;;;0.51
67829;BMP280;54626;45.436;10.942;2023-02-01T02:47:36;101077.88;;;-0.08
67829;BMP280;54626;45.436;10.942;2023-02-01T02:50:15;101083.38;;;0.00
67829;BMP280;54626;45.436;10.942;2023-02-01T02:53:16;101080.41;;;0.07
67829;BMP280;54626;45.436;10.942;2023-02-01T02:56:05;101086.63;;;0.08
67829;BMP280;54626;45.436;10.942;2023-02-01T02:58:51;101086.94;;;0.10
67829;BMP280;54626;45.436;10.942;2023-02-01T03:01:37;101085.28;;;0.12
67829;BMP280;54626;45.436;10.942;2023-02-01T03:04:22;101086.47;;;0.11
67829;BMP280;54626;45.436;10.942;2023-02-01T03:06:49;101086.63;;;0.08
67829;BMP280;54626;45.436;10.942;2023-02-01T03:09:25;101084.47;;;0.03
67829;BMP280;54626;45.436;10.942;2023-02-01T03:11:58;101090.03;;;-0.01
67829;BMP280;54626;45.436;10.942;2023-02-01T03:14:47;101084.97;;;-0.11
67829;BMP280;54626;45.436;10.942;2023-02-01T03:17:18;101084.47;;;-0.18
67829;BMP280;54626;45.436;10.942;2023-02-01T03:19:48;101087.28;;;-0.22
67829;BMP280;54626;45.436;10.942;2023-02-01T03:22:22;101088.63;;;-0.26
67829;BMP280;54626;45.436;10.942;2023-02-01T03:24:53;101084.72;;;-0.25
67829;BMP280;54626;45.436;10.942;2023-02-01T03:27:31;101097.28;;;-0.19
67829;BMP280;54626;45.436;10.942;2023-02-01T03:30:08;101090.97;;;-0.16
67829;BMP280;54626;45.436;10.942;2023-02-01T03:32:37;101098.47;;;-0.20
67829;BMP280;54626;45.436;10.942;2023-02-01T03:38:12;101093.09;;;-0.32
67829;BMP280;54626;45.436;10.942;2023-02-01T03:40:41;101091.69;;;-0.37
67829;BMP280;54626;45.436;10.942;2023-02-01T03:43:12;101088.22;;;-0.37
67829;BMP280;54626;45.436;10.942;2023-02-01T03:45:44;101097.66;;;-0.29
67829;BMP280;54626;45.436;10.942;2023-02-01T03:48:14;101097.28;;;-0.19
67829;BMP280;54626;45.436;10.942;2023-02-01T03:50:46;101096.72;;;-0.14
67829;BMP280;54626;45.436;10.942;2023-02-01T03:53:17;101095.50;;;-0.13
67829;BMP280;54626;45.436;10.942;2023-02-01T03:55:46;101083.59;;;-0.15
67829;BMP280;54626;45.436;10.942;2023-02-01T03:58:15;101099.03;;;-0.25
67829;BMP280;54626;45.436;10.942;2023-02-01T04:00:50;101101.75;;;-0.25
67829;BMP280;54626;45.436;10.942;2023-02-01T04:03:17;101091.97;;;-0.22
67829;BMP280;54626;45.436;10.942;2023-02-01T04:05:44;101091.66;;;-0.24
67829;BMP280;54626;45.436;10.942;2023-02-01T04:08:10;101096.31;;;-0.25
67829;BMP280;54626;45.436;10.942;2023-02-01T04:10:37;101102.97;;;-0.26
67829;BMP280;54626;45.436;10.942;2023-02-01T04:13:03;101102.06;;;-0.23
67829;BMP280;54626;45.436;10.942;2023-02-01T04:15:30;101101.97;;;-0.19
67829;BMP280;54626;45.436;10.942;2023-02-01T04:17:56;101103.59;;;-0.22
67829;BMP280;54626;45.436;10.942;2023-02-01T04:20:23;101097.53;;;-0.26
67829;BMP280;54626;45.436;10.942;2023-02-01T04:22:50;101103.91;;;-0.20
67829;BMP280;54626;45.436;10.942;2023-02-01T04:25:16;101107.09;;;-0.21
67829;BMP280;54626;45.436;10.942;2023-02-01T04:27:44;101106.75;;;-0.23
67829;BMP280;54626;45.436;10.942;2023-02-01T04:30:10;101102.72;;;-0.19
67829;BMP280;54626;45.436;10.942;2023-02-01T04:32:38;101113.56;;;-0.19
67829;BMP280;54626;45.436;10.942;2023-02-01T04:35:04;101114.72;;;-0.29
67829;BMP280;54626;45.436;10.942;2023-02-01T04:37:31;101125.47;;;-0.38
67829;BMP280;54626;45.436;10.942;2023-02-01T04:39:58;101115.47;;;-0.41
67829;BMP280;54626;45.436;10.942;2023-02-01T04:42:24;101119.28;;;-0.38
67829;BMP280;54626;45.436;10.942;2023-02-01T04:44:51;101114.91;;;-0.36
67829;BMP280;54626;45.436;10.942;2023-02-01T04:47:17;101118.41;;;-0.35
67829;BMP280;54626;45.436;10.942;2023-02-01T04:49:44;101116.75;;;-0.33
67829;BMP280;54626;45.436;10.942;2023-02-01T04:52:10;101120.81;;;-0.37
67829;BMP280;54626;45.436;10.942;2023-02-01T04:54:37;101112.75;;;-0.41
67829;BMP280;54626;45.436;10.942;2023-02-01T04:57:03;101109.88;;;-0.46
67829;BMP280;54626;45.436;10.942;2023-02-01T04:59:30;101119.78;;;-0.52
67829;BMP280;54626;45.436;10.942;2023-02-01T05:01:56;101115.66;;;-0.57
67829;BMP280;54626;45.436;10.942;2023-02-01T05:04:23;101117.72;;;-0.61
67829;BMP280;54626;45.436;10.942;2023-02-01T05:06:49;101110.78;;;-0.62
67829;BMP280;54626;45.436;10.942;2023-02-01T05:09:16;101108.94;;;-0.65
67829;BMP280;54626;45.436;10.942;2023-02-01T05:11:45;101113.63;;;-0.65
67829;BMP280;54626;45.436;10.942;2023-02-01T05:14:31;101117.44;;;-0.75
67829;BMP280;54626;45.436;10.942;2023-02-01T05:16:57;101116.13;;;-0.71
67829;BMP280;54626;45.436;10.942;2023-02-01T05:19:24;101114.50;;;-0.68
67829;BMP280;54626;45.436;10.942;2023-02-01T05:21:50;101110.91;;;-0.65
67829;BMP280;54626;45.436;10.942;2023-02-01T05:24:17;101113.94;;;-0.63
67829;BMP280;54626;45.436;10.942;2023-02-01T05:26:47;101111.66;;;-0.65
67829;BMP280;54626;45.436;10.942;2023-02-01T05:29:16;101107.97;;;-0.71
67829;BMP280;54626;45.436;10.942;2023-02-01T05:31:46;101107.34;;;-0.75
67829;BMP280;54626;45.436;10.942;2023-02-01T05:34:13;101108.97;;;-0.77
67829;BMP280;54626;45.436;10.942;2023-02-01T05:36:40;101110.84;;;-0.87
67829;BMP280;54626;45.436;10.942;2023-02-01T05:39:07;101103.78;;;-0.84
67829;BMP280;54626;45.436;10.942;2023-02-01T05:41:34;101116.34;;;-0.78
67829;BMP280;54626;45.436;10.942;2023-02-01T05:44:00;101106.59;;;-0.75
67829;BMP280;54626;45.436;10.942;2023-02-01T05:46:27;101116.91;;;-0.83
67829;BMP280;54626;45.436;10.942;2023-02-01T05:48:54;101118.97;;;-0.87
67829;BMP280;54626;45.436;10.942;2023-02-01T05:51:20;101120.31;;;-0.91
67829;BMP280;54626;45.436;10.942;2023-02-01T05:53:47;101113.78;;;-0.94
67829;BMP280;54626;45.436;10.942;2023-02-01T05:56:13;101106.72;;;-1.04
67829;BMP280;54626;45.436;10.942;2023-02-01T05:58:40;101106.88;;;-1.07
67829;BMP280;54626;45.436;10.942;2023-02-01T06:01:06;101120.09;;;-1.09
67829;BMP280;54626;45.436;10.942;2023-02-01T06:03:33;101128.66;;;-1.11
67829;BMP280;54626;45.436;10.942;2023-02-01T06:06:02;101125.41;;;-1.06
67829;BMP280;54626;45.436;10.942;2023-02-01T06:08:28;101125.31;;;-1.02
67829;BMP280;54626;45.436;10.942;2023-02-01T06:11:03;101120.44;;;-1.07
67829;BMP280;54626;45.436;10.942;2023-02-01T06:13:31;101116.94;;;-1.08
67829;BMP280;54626;45.436;10.942;2023-02-01T06:16:01;101116.94;;;-1.08
67829;BMP280;54626;45.436;10.942;2023-02-01T06:18:28;101107.06;;;-1.02
67829;BMP280;54626;45.436;10.942;2023-02-01T06:20:57;101120.31;;;-1.04
67829;BMP280;54626;45.436;10.942;2023-02-01T06:23:27;101119.22;;;-1.06
67829;BMP280;54626;45.436;10.942;2023-02-01T06:26:02;101109.91;;;-1.05
67829;BMP280;54626;45.436;10.942;2023-02-01T06:28:31;101101.97;;;-1.00
67829;BMP280;54626;45.436;10.942;2023-02-01T06:31:06;101100.56;;;-1.04
67829;BMP280;54626;45.436;10.942;2023-02-01T06:33:34;101109.13;;;-1.06
67829;BMP280;54626;45.436;10.942;2023-02-01T06:36:01;101105.22;;;-1.05
67829;BMP280;54626;45.436;10.942;2023-02-01T06:38:28;101102.09;;;-1.03
67829;BMP280;54626;45.436;10.942;2023-02-01T06:40:56;101102.19;;;-1.07
67829;BMP280;54626;45.436;10.942;2023-02-01T06:43:24;101110.22;;;-1.03
67829;BMP280;54626;45.436;10.942;2023-02-01T06:45:51;101116.72;;;-1.01
67829;BMP280;54626;45.436;10.942;2023-02-01T06:48:18;101124.75;;;-0.97
67829;BMP280;54626;45.436;10.942;2023-02-01T06:50:47;101118.56;;;-0.98
67829;BMP280;54626;45.436;10.942;2023-02-01T06:53:17;101120.41;;;-0.95
67829;BMP280;54626;45.436;10.942;2023-02-01T06:56:00;101125.09;;;-0.95
67829;BMP280;54626;45.436;10.942;2023-02-01T06:58:29;101131.47;;;-1.02
67829;BMP280;54626;45.436;10.942;2023-02-01T07:00:55;101122.03;;;-0.97
67829;BMP280;54626;45.436;10.942;2023-02-01T07:03:22;101133.22;;;-0.95
67829;BMP280;54626;45.436;10.942;2023-02-01T07:05:49;101133.22;;;-0.95
67829;BMP280;54626;45.436;10.942;2023-02-01T07:08:18;101138.53;;;-0.92
67829;BMP280;54626;45.436;10.942;2023-02-01T07:10:45;101137.66;;;-0.89
67829;BMP280;54626;45.436;10.942;2023-02-01T07:13:12;101144.13;;;-0.74
67829;BMP280;54626;45.436;10.942;2023-02-01T07:15:38;101136.41;;;-0.63
67829;BMP280;54626;45.436;10.942;2023-02-01T07:18:05;101138.09;;;-0.44
67829;BMP280;54626;45.436;10.942;2023-02-01T07:20:31;101138.41;;;-0.29
67829;BMP280;54626;45.436;10.942;2023-02-01T07:22:58;101140.13;;;-0.02
67829;BMP280;54626;45.436;10.942;2023-02-01T07:25:24;101142.41;;;0.21
67829;BMP280;54626;45.436;10.942;2023-02-01T07:27:51;101126.38;;;0.45
67829;BMP280;54626;45.436;10.942;2023-02-01T07:30:17;101134.56;;;0.54
67829;BMP280;54626;45.436;10.942;2023-02-01T07:32:44;101142.47;;;0.61
67829;BMP280;54626;45.436;10.942;2023-02-01T07:35:12;101134.72;;;0.59
67829;BMP280;54626;45.436;10.942;2023-02-01T07:37:40;101138.03;;;0.54
67829;BMP280;54626;45.436;10.942;2023-02-01T07:40:07;101141.84;;;0.57
67829;BMP280;54626;45.436;10.942;2023-02-01T07:42:34;101142.28;;;0.55
67829;BMP280;54626;45.436;10.942;2023-02-01T07:45:00;101154.53;;;0.60
67829;BMP280;54626;45.436;10.942;2023-02-01T07:47:45;101156.25;;;0.75
67829;BMP280;54626;45.436;10.942;2023-02-01T07:50:12;101153.78;;;0.90
67829;BMP280;54626;45.436;10.942;2023-02-01T07:52:38;101163.78;;;1.02
67829;BMP280;54626;45.436;10.942;2023-02-01T07:55:06;101171.84;;;1.14
67829;BMP280;54626;45.436;10.942;2023-02-01T07:57:33;101173.84;;;1.23
67829;BMP280;54626;45.436;10.942;2023-02-01T07:59:59;101173.56;;;1.38
67829;BMP280;54626;45.436;10.942;2023-02-01T08:02:45;101174.19;;;1.51
67829;BMP280;54626;45.436;10.942;2023-02-01T08:05:11;101178.59;;;1.67
67829;BMP280;54626;45.436;10.942;2023-02-01T08:07:40;101174.31;;;1.84
67829;BMP280;54626;45.436;10.942;2023-02-01T08:10:21;101182.50;;;2.02
67829;BMP280;54626;45.436;10.942;2023-02-01T08:12:47;101186.44;;;2.10
67829;BMP280;54626;45.436;10.942;2023-02-01T08:15:15;101177.50;;;2.18
67829;BMP280;54626;45.436;10.942;2023-02-01T08:17:48;101169.72;;;2.34
67829;BMP280;54626;45.436;10.942;2023-02-01T08:20:16;101167.56;;;2.47
67829;BMP280;54626;45.436;10.942;2023-02-01T08:22:43;101166.91;;;2.61
67829;BMP280;54626;45.436;10.942;2023-02-01T08:25:10;101165.34;;;2.78
67829;BMP280;54626;45.436;10.942;2023-02-01T08:27:37;101159.50;;;2.94
67829;BMP280;54626;45.436;10.942;2023-02-01T08:30:06;101166.75;;;2.97
67829;BMP280;54626;45.436;10.942;2023-02-01T08:32:37;101176.59;;;3.04
67829;BMP280;54626;45.436;10.942;2023-02-01T08:35:04;101167.53;;;3.21
67829;BMP280;54626;45.436;10.942;2023-02-01T08:37:31;101163.34;;;3.35
67829;BMP280;54626;45.436;10.942;2023-02-01T08:39:57;101159.03;;;3.42
67829;BMP280;54626;45.436;10.942;2023-02-01T08:42:24;101164.13;;;3.49
67829;BMP280;54626;45.436;10.942;2023-02-01T08:45:09;101176.72;;;3.33
67829;BMP280;54626;45.436;10.942;2023-02-01T08:47:36;101166.41;;;3.51
67829;BMP280;54626;45.436;10.942;2023-02-01T08:50:02;101171.25;;;3.56
67829;BMP280;54626;45.436;10.942;2023-02-01T08:52:29;101168.22;;;3.68
67829;BMP280;54626;45.436;10.942;2023-02-01T08:54:55;101176.66;;;3.79
67829;BMP280;54626;45.436;10.942;2023-02-01T08:57:22;101175.34;;;3.89
67829;BMP280;54626;45.436;10.942;2023-02-01T08:59:49;101175.09;;;4.02
67829;BMP280;54626;45.436;10.942;2023-02-01T09:02:18;101171.88;;;4.03
67829;BMP280;54626;45.436;10.942;2023-02-01T09:04:45;101181.97;;;4.26
67829;BMP280;54626;45.436;10.942;2023-02-01T09:07:11;101174.63;;;4.47
67829;BMP280;54626;45.436;10.942;2023-02-01T09:09:39;101161.81;;;4.58
67829;BMP280;54626;45.436;10.942;2023-02-01T09:12:05;101164.16;;;4.79
67829;BMP280;54626;45.436;10.942;2023-02-01T09:14:32;101164.75;;;4.89
67829;BMP280;54626;45.436;10.942;2023-02-01T09:16:58;101159.94;;;4.98
67829;BMP280;54626;45.436;10.942;2023-02-01T09:19:25;101162.75;;;5.24
67829;BMP280;54626;45.436;10.942;2023-02-01T09:21:52;101164.19;;;5.39
67829;BMP280;54626;45.436;10.942;2023-02-01T09:24:19;101162.66;;;5.58
67829;BMP280;54626;45.436;10.942;2023-02-01T09:26:45;101152.28;;;5.67
67829;BMP280;54626;45.436;10.942;2023-02-01T09:29:12;101156.41;;;5.83
67829;BMP280;54626;45.436;10.942;2023-02-01T09:31:39;101153.16;;;6.04
67829;BMP280;54626;45.436;10.942;2023-02-01T09:34:11;101158.00;;;6.20
67829;BMP280;54626;45.436;10.942;2023-02-01T09:36:38;101151.84;;;6.31
67829;BMP280;54626;45.436;10.942;2023-02-01T09:39:05;101164.91;;;6.41
67829;BMP280;54626;45.436;10.942;2023-02-01T09:41:45;101172.00;;;6.58
67829;BMP280;54626;45.436;10.942;2023-02-01T09:44:21;101173.16;;;6.83
67829;BMP280;54626;45.436;10.942;2023-02-01T09:46:55;101174.28;;;7.02
67829;BMP280;54626;45.436;10.942;2023-02-01T09:49:27;101179.03;;;7.07
67829;BMP280;54626;45.436;10.942;2023-02-01T09:51:55;101163.56;;;7.20
67829;BMP280;54626;45.436;10.942;2023-02-01T09:54:24;101167.34;;;7.23
67829;BMP280;54626;45.436;10.942;2023-02-01T09:57:06;101172.41;;;7.30
67829;BMP280;54626;45.436;10.942;2023-02-01T09:59:43;101173.84;;;7.25
67829;BMP280;54626;45.436;10.942;2023-02-01T10:02:22;101179.97;;;7.56
67829;BMP280;54626;45.436;10.942;2023-02-01T10:04:54;101183.16;;;7.44
67829;BMP280;54626;45.436;10.942;2023-02-01T10:10:34;101181.78;;;7.92
67829;BMP280;54626;45.436;10.942;2023-02-01T10:16:07;101180.78;;;8.17
67829;BMP280;54626;45.436;10.942;2023-02-01T10:21:19;101168.25;;;8.16
67829;BMP280;54626;45.436;10.942;2023-02-01T10:24:07;101170.78;;;8.14
67829;BMP280;54626;45.436;10.942;2023-02-01T10:26:55;101165.00;;;8.28
67829;BMP280;54626;45.436;10.942;2023-02-01T10:29:28;101168.50;;;8.45
67829;BMP280;54626;45.436;10.942;2023-02-01T10:31:57;101148.97;;;8.27
67829;BMP280;54626;45.436;10.942;2023-02-01T10:34:25;101144.69;;;8.26
67829;BMP280;54626;45.436;10.942;2023-02-01T10:36:57;101143.66;;;8.56
67829;BMP280;54626;45.436;10.942;2023-02-01T10:39:26;101154.13;;;8.80
67829;BMP280;54626;45.436;10.942;2023-02-01T10:41:54;101164.94;;;8.72
67829;BMP280;54626;45.436;10.942;2023-02-01T10:44:28;101163.88;;;8.86
67829;BMP280;54626;45.436;10.942;2023-02-01T10:46:56;101165.88;;;8.86
67829;BMP280;54626;45.436;10.942;2023-02-01T10:49:29;101165.38;;;8.87
67829;BMP280;54626;45.436;10.942;2023-02-01T10:52:21;101150.84;;;8.76
67829;BMP280;54626;45.436;10.942;2023-02-01T10:54:49;101162.91;;;8.78
67829;BMP280;54626;45.436;10.942;2023-02-01T10:57:24;101165.63;;;8.84
67829;BMP280;54626;45.436;10.942;2023-02-01T10:59:52;101168.38;;;8.89
67829;BMP280;54626;45.436;10.942;2023-02-01T11:02:27;101151.47;;;9.20
67829;BMP280;54626;45.436;10.942;2023-02-01T11:05:00;101144.63;;;9.26
67829;BMP280;54626;45.436;10.942;2023-02-01T11:07:28;101145.69;;;9.12
67829;BMP280;54626;45.436;10.942;2023-02-01T11:09:55;101142.88;;;9.29
67829;BMP280;54626;45.436;10.942;2023-02-01T11:12:32;101137.28;;;9.34
67829;BMP280;54626;45.436;10.942;2023-02-01T11:17:43;101148.59;;;9.36
67829;BMP280;54626;45.436;10.942;2023-02-01T11:20:21;101148.63;;;9.31
67829;BMP280;54626;45.436;10.942;2023-02-01T11:22:55;101152.00;;;9.48
67829;BMP280;54626;45.436;10.942;2023-02-01T11:25:23;101150.47;;;9.52
67829;BMP280;54626;45.436;10.942;2023-02-01T11:27:53;101151.19;;;9.58
67829;BMP280;54626;45.436;10.942;2023-02-01T11:32:59;101143.16;;;9.60
67829;BMP280;54626;45.436;10.942;2023-02-01T11:35:27;101150.25;;;9.50
67829;BMP280;54626;45.436;10.942;2023-02-01T11:37:57;101145.41;;;9.62
67829;BMP280;54626;45.436;10.942;2023-02-01T11:40:34;101143.66;;;9.59
67829;BMP280;54626;45.436;10.942;2023-02-01T11:43:27;101126.97;;;9.40
67829;BMP280;54626;45.436;10.942;2023-02-01T11:45:56;101130.72;;;9.78
67829;BMP280;54626;45.436;10.942;2023-02-01T11:48:25;101130.31;;;9.97
67829;BMP280;54626;45.436;10.942;2023-02-01T11:51:04;101125.03;;;9.94
67829;BMP280;54626;45.436;10.942;2023-02-01T11:53:39;101116.72;;;9.99
67829;BMP280;54626;45.436;10.942;2023-02-01T11:59:26;101097.22;;;9.63
67829;BMP280;54626;45.436;10.942;2023-02-01T12:04:58;101096.06;;;10.06
67829;BMP280;54626;45.436;10.942;2023-02-01T12:07:47;101093.81;;;10.04
67829;BMP280;54626;45.436;10.942;2023-02-01T12:15:46;101084.94;;;9.88
67829;BMP280;54626;45.436;10.942;2023-02-01T12:21:12;101080.50;;;10.03
67829;BMP280;54626;45.436;10.942;2023-02-01T12:24:08;101082.78;;;10.04
67829;BMP280;54626;45.436;10.942;2023-02-01T12:29:56;101060.44;;;10.02
67829;BMP280;54626;45.436;10.942;2023-02-01T12:43:57;101054.47;;;10.17
67829;BMP280;54626;45.436;10.942;2023-02-01T12:46:43;101042.16;;;9.94
67829;BMP280;54626;45.436;10.942;2023-02-01T12:52:01;101042.84;;;10.24
67829;BMP280;54626;45.436;10.942;2023-02-01T12:54:40;101053.13;;;10.05
67829;BMP280;54626;45.436;10.942;2023-02-01T12:57:16;101047.25;;;10.14
67829;BMP280;54626;45.436;10.942;2023-02-01T13:00:05;101049.44;;;10.21
67829;BMP280;54626;45.436;10.942;2023-02-01T13:02:39;101032.78;;;10.26
67829;BMP280;54626;45.436;10.942;2023-02-01T13:05:20;101026.53;;;10.44
67829;BMP280;54626;45.436;10.942;2023-02-01T13:07:56;101036.84;;;10.44
67829;BMP280;54626;45.436;10.942;2023-02-01T13:10:38;101020.75;;;10.42
67829;BMP280;54626;45.436;10.942;2023-02-01T13:13:14;101016.13;;;10.32
67829;BMP280;54626;45.436;10.942;2023-02-01T13:16:05;101011.97;;;10.44
67829;BMP280;54626;45.436;10.942;2023-02-01T13:18:39;100998.63;;;10.24
67829;BMP280;54626;45.436;10.942;2023-02-01T13:21:17;100995.50;;;10.33
67829;BMP280;54626;45.436;10.942;2023-02-01T13:23:49;100995.94;;;10.18
67829;BMP280;54626;45.436;10.942;2023-02-01T13:26:19;100988.13;;;10.22
67829;BMP280;54626;45.436;10.942;2023-02-01T13:28:52;100983.03;;;10.26
67829;BMP280;54626;45.436;10.942;2023-02-01T13:34:29;100987.53;;;10.48
67829;BMP280;54626;45.436;10.942;2023-02-01T13:37:23;100980.47;;;10.65
67829;BMP280;54626;45.436;10.942;2023-02-01T13:42:23;100983.97;;;10.84
67829;BMP280;54626;45.436;10.942;2023-02-01T13:44:56;100986.44;;;10.87
67829;BMP280;54626;45.436;10.942;2023-02-01T13:50:32;100981.63;;;11.06
67829;BMP280;54626;45.436;10.942;2023-02-01T13:53:16;100973.47;;;10.95
67829;BMP280;54626;45.436;10.942;2023-02-01T13:55:44;100981.00;;;11.13
67829;BMP280;54626;45.436;10.942;2023-02-01T13:58:21;100977.59;;;11.07
67829;BMP280;54626;45.436;10.942;2023-02-01T14:00:50;100980.41;;;11.02
67829;BMP280;54626;45.436;10.942;2023-02-01T14:03:21;100969.91;;;11.00
67829;BMP280;54626;45.436;10.942;2023-02-01T14:08:23;100969.69;;;10.80
67829;BMP280;54626;45.436;10.942;2023-02-01T14:10:54;100974.41;;;10.85
67829;BMP280;54626;45.436;10.942;2023-02-01T14:13:39;100973.53;;;10.77
67829;BMP280;54626;45.436;10.942;2023-02-01T14:26:26;100965.81;;;10.39
67829;BMP280;54626;45.436;10.942;2023-02-01T14:28:58;100954.03;;;10.33
67829;BMP280;54626;45.436;10.942;2023-02-01T14:34:11;100946.13;;;10.24
67829;BMP280;54626;45.436;10.942;2023-02-01T14:37:00;100932.84;;;10.22
67829;BMP280;54626;45.436;10.942;2023-02-01T14:47:54;100953.06;;;10.12
67829;BMP280;54626;45.436;10.942;2023-02-01T14:55:38;100960.88;;;10.08
67829;BMP280;54626;45.436;10.942;2023-02-01T14:58:14;100951.41;;;10.03
67829;BMP280;54626;45.436;10.942;2023-02-01T15:00:52;100955.03;;;9.93
67829;BMP280;54626;45.436;10.942;2023-02-01T15:03:38;100955.13;;;9.88
67829;BMP280;54626;45.436;10.942;2023-02-01T15:06:22;100946.06;;;9.87
67829;BMP280;54626;45.436;10.942;2023-02-01T15:08:53;100944.69;;;9.75
67829;BMP280;54626;45.436;10.942;2023-02-01T15:11:21;100944.44;;;9.73
67829;BMP280;54626;45.436;10.942;2023-02-01T15:13:50;100943.28;;;9.69
67829;BMP280;54626;45.436;10.942;2023-02-01T15:16:24;100932.50;;;9.65
67829;BMP280;54626;45.436;10.942;2023-02-01T15:19:07;100939.59;;;9.61
67829;BMP280;54626;45.436;10.942;2023-02-01T15:21:48;100937.06;;;9.63
67829;BMP280;54626;45.436;10.942;2023-02-01T15:24:25;100937.66;;;9.56
67829;BMP280;54626;45.436;10.942;2023-02-01T15:26:53;100920.19;;;9.42
67829;BMP280;54626;45.436;10.942;2023-02-01T15:29:22;100926.81;;;9.34
67829;BMP280;54626;45.436;10.942;2023-02-01T15:31:52;100923.63;;;9.24
67829;BMP280;54626;45.436;10.942;2023-02-01T15:34:20;100923.38;;;9.22
67829;BMP280;54626;45.436;10.942;2023-02-01T15:36:47;100922.97;;;9.13
67829;BMP280;54626;45.436;10.942;2023-02-01T15:39:27;100917.28;;;9.05
67829;BMP280;54626;45.436;10.942;2023-02-01T15:41:57;100919.63;;;8.96
67829;BMP280;54626;45.436;10.942;2023-02-01T15:44:31;100918.16;;;8.90
67829;BMP280;54626;45.436;10.942;2023-02-01T15:46:59;100928.50;;;8.84
67829;BMP280;54626;45.436;10.942;2023-02-01T15:49:30;100926.03;;;8.75
67829;BMP280;54626;45.436;10.942;2023-02-01T15:52:01;100920.34;;;8.67
67829;BMP280;54626;45.436;10.942;2023-02-01T15:54:31;100920.91;;;8.55
67829;BMP280;54626;45.436;10.942;2023-02-01T15:57:01;100924.69;;;8.52
67829;BMP280;54626;45.436;10.942;2023-02-01T15:59:45;100925.25;;;8.45
67829;BMP280;54626;45.436;10.942;2023-02-01T16:02:35;100927.31;;;8.33
67829;BMP280;54626;45.436;10.942;2023-02-01T16:05:21;100934.81;;;8.33